createdAt,value
2022-12-11T00:01:09.852Z,34.79
2022-12-11T00:03:36.955Z,34.74
2022-12-11T00:06:04.041Z,34.93
2022-12-11T00:08:31.157Z,34.78
2022-12-11T00:10:58.205Z,34.74
2022-12-11T00:13:25.258Z,34.93
2022-12-11T00:15:52.313Z,34.90
2022-12-11T00:18:19.370Z,34.75
2022-12-11T00:20:46.434Z,34.73
2022-12-11T00:23:13.495Z,34.82
2022-12-11T00:25:40.588Z,34.72
2022-12-11T00:28:07.634Z,34.75
2022-12-11T00:30:34.733Z,34.92
2022-12-11T00:33:01.807Z,34.61
2022-12-11T00:35:28.881Z,34.90
2022-12-11T00:37:55.964Z,34.93
2022-12-11T00:40:23.018Z,34.75
2022-12-11T00:42:50.090Z,34.93
2022-12-11T00:45:17.160Z,34.82
2022-12-11T00:47:44.218Z,34.53
2022-12-11T00:50:12.277Z,34.64
2022-12-11T00:52:40.657Z,34.58
2022-12-11T00:55:08.019Z,34.68
2022-12-11T00:57:35.218Z,34.87
2022-12-11T01:00:02.285Z,34.63
2022-12-11T01:02:29.451Z,34.97
2022-12-11T01:04:56.561Z,34.78
2022-12-11T01:07:23.637Z,34.80
2022-12-11T01:10:09.607Z,34.61
2022-12-11T01:12:36.742Z,34.74
2022-12-11T01:15:03.798Z,34.89
2022-12-11T01:17:30.869Z,34.66
2022-12-11T01:19:57.951Z,34.75
2022-12-11T01:22:25.136Z,34.56
2022-12-11T01:24:52.219Z,34.83
2022-12-11T01:27:19.294Z,35.01
2022-12-11T01:29:46.383Z,34.57
2022-12-11T01:32:13.440Z,34.70
2022-12-11T01:34:40.502Z,34.81
2022-12-11T01:37:07.556Z,34.91
2022-12-11T01:39:34.674Z,34.62
2022-12-11T01:42:01.768Z,34.85
2022-12-11T01:44:28.845Z,34.70
2022-12-11T01:46:55.937Z,34.85
2022-12-11T01:49:23.022Z,34.93
2022-12-11T01:51:50.092Z,34.64
2022-12-11T01:54:17.161Z,34.68
2022-12-11T01:56:44.217Z,34.74
2022-12-11T01:59:11.377Z,34.80
2022-12-11T02:01:38.471Z,34.98
2022-12-11T02:04:05.580Z,34.94
2022-12-11T02:06:32.681Z,35.01
2022-12-11T02:08:59.777Z,34.90
2022-12-11T02:11:26.852Z,34.89
2022-12-11T02:13:53.918Z,34.72
2022-12-11T02:16:21.039Z,34.63
2022-12-11T02:18:48.150Z,34.76
2022-12-11T02:21:15.503Z,34.66
2022-12-11T02:23:42.605Z,34.94
2022-12-11T02:26:09.697Z,34.78
2022-12-11T02:28:36.781Z,34.71
2022-12-11T02:31:03.865Z,34.95
2022-12-11T02:33:30.978Z,34.95
2022-12-11T02:35:58.024Z,34.82
2022-12-11T02:38:25.140Z,35.10
2022-12-11T02:40:52.215Z,34.67
2022-12-11T02:43:19.328Z,34.80
2022-12-11T02:45:46.568Z,34.84
2022-12-11T02:48:14.011Z,34.95
2022-12-11T02:50:41.072Z,35.13
2022-12-11T02:53:08.143Z,34.81
2022-12-11T02:55:35.205Z,35.13
2022-12-11T02:58:02.277Z,35.17
2022-12-11T03:00:29.350Z,34.92
2022-12-11T03:02:56.425Z,35.17
2022-12-11T03:05:23.490Z,34.94
2022-12-11T03:07:50.654Z,35.18
2022-12-11T03:10:18.958Z,34.92
2022-12-11T03:12:49.204Z,35.11
2022-12-11T03:15:18.933Z,35.20
2022-12-11T03:17:45.995Z,35.25
2022-12-11T03:20:13.105Z,35.16
2022-12-11T03:22:40.226Z,35.02
2022-12-11T03:25:08.007Z,34.99
2022-12-11T03:27:35.331Z,35.18
2022-12-11T03:30:02.428Z,35.21
2022-12-11T03:32:29.543Z,34.98
2022-12-11T03:34:58.416Z,35.02
2022-12-11T03:37:26.327Z,35.00
2022-12-11T03:39:53.942Z,35.34
2022-12-11T03:42:21.014Z,35.04
2022-12-11T03:44:48.113Z,35.23
2022-12-11T03:47:15.180Z,35.28
2022-12-11T03:49:42.243Z,35.20
2022-12-11T03:52:09.640Z,35.17
2022-12-11T03:54:36.718Z,34.99
2022-12-11T03:57:03.769Z,34.99
2022-12-11T03:59:30.903Z,35.19
2022-12-11T04:01:59.532Z,34.95
2022-12-11T04:04:26.677Z,35.05
2022-12-11T04:06:53.777Z,34.99
2022-12-11T04:09:20.881Z,35.09
2022-12-11T04:11:48.054Z,35.08
2022-12-11T04:14:34.142Z,35.15
2022-12-11T04:17:01.163Z,35.42
2022-12-11T04:19:46.980Z,35.12
2022-12-11T04:22:32.588Z,35.10
2022-12-11T04:24:59.675Z,35.20
2022-12-11T04:27:45.228Z,35.12
2022-12-11T04:30:12.380Z,35.08
2022-12-11T04:32:39.453Z,35.37
2022-12-11T04:35:06.539Z,35.14
2022-12-11T04:37:33.785Z,35.32
2022-12-11T04:40:00.866Z,35.05
2022-12-11T04:42:27.993Z,35.31
2022-12-11T04:44:55.131Z,35.42
2022-12-11T04:47:22.243Z,35.25
2022-12-11T04:49:49.326Z,35.56
2022-12-11T04:52:16.386Z,35.46
2022-12-11T04:54:43.469Z,35.42
2022-12-11T04:57:10.523Z,35.42
2022-12-11T04:59:37.585Z,35.19
2022-12-11T05:02:04.715Z,35.18
2022-12-11T05:04:32.500Z,35.17
2022-12-11T05:06:59.598Z,35.41
2022-12-11T05:09:27.208Z,35.21
2022-12-11T05:11:54.596Z,35.28
2022-12-11T05:14:21.734Z,35.38
2022-12-11T05:16:48.814Z,35.31
2022-12-11T05:19:16.185Z,35.24
2022-12-11T05:21:43.266Z,35.24
2022-12-11T05:24:10.669Z,35.35
2022-12-11T05:26:37.729Z,35.43
2022-12-11T05:29:05.542Z,35.31
2022-12-11T05:31:32.737Z,35.26
2022-12-11T05:33:59.928Z,35.45
2022-12-11T05:36:27.102Z,35.45
2022-12-11T05:38:54.555Z,35.30
2022-12-11T05:41:21.771Z,35.52
2022-12-11T05:43:48.898Z,35.40
2022-12-11T05:46:16.785Z,35.49
2022-12-11T05:48:43.964Z,35.63
2022-12-11T05:51:11.149Z,35.09
2022-12-11T05:53:38.221Z,35.15
2022-12-11T05:56:05.314Z,35.25
2022-12-11T05:58:32.438Z,35.28
2022-12-11T06:00:59.494Z,35.24
2022-12-11T06:03:26.820Z,35.28
2022-12-11T06:05:53.883Z,35.29
2022-12-11T06:08:20.987Z,35.32
2022-12-11T06:10:48.084Z,35.35
2022-12-11T06:13:15.154Z,35.30
2022-12-11T06:15:42.207Z,35.17
2022-12-11T06:18:09.294Z,35.49
2022-12-11T06:20:36.371Z,35.47
2022-12-11T06:23:03.477Z,35.43
2022-12-11T06:25:30.550Z,35.31
2022-12-11T06:27:57.621Z,35.25
2022-12-11T06:30:39.025Z,35.47
2022-12-11T06:33:06.652Z,35.47
2022-12-11T06:35:40.112Z,35.34
2022-12-11T06:38:08.934Z,35.49
2022-12-11T06:40:36.056Z,35.13
2022-12-11T06:43:03.555Z,35.22
2022-12-11T06:45:30.926Z,35.41
2022-12-11T06:47:58.068Z,35.32
2022-12-11T06:50:25.156Z,35.47
2022-12-11T06:52:52.240Z,35.40
2022-12-11T06:55:19.297Z,35.44
2022-12-11T06:57:46.375Z,35.34
2022-12-11T07:00:13.470Z,35.41
2022-12-11T07:02:40.733Z,35.47
2022-12-11T07:05:08.062Z,35.30
2022-12-11T07:07:35.228Z,35.38
2022-12-11T07:10:08.018Z,35.43
2022-12-11T07:12:35.758Z,35.23
2022-12-11T07:15:02.834Z,35.08
2022-12-11T07:17:29.932Z,35.51
2022-12-11T07:19:57.103Z,35.38
2022-12-11T07:22:24.219Z,35.38
2022-12-11T07:24:51.375Z,35.52
2022-12-11T07:27:18.455Z,35.39
2022-12-11T07:29:45.535Z,35.30
2022-12-11T07:32:12.702Z,35.50
2022-12-11T07:34:40.069Z,35.32
2022-12-11T07:37:07.124Z,35.27
2022-12-11T07:39:34.249Z,35.36
2022-12-11T07:42:01.322Z,35.52
2022-12-11T07:44:28.398Z,35.33
2022-12-11T07:46:55.469Z,35.31
2022-12-11T07:49:22.625Z,35.39
2022-12-11T07:51:49.682Z,35.32
2022-12-11T07:54:17.447Z,35.38
2022-12-11T07:56:45.709Z,35.34
2022-12-11T07:59:16.801Z,35.33
2022-12-11T08:01:44.233Z,35.13
2022-12-11T08:04:11.322Z,35.38
2022-12-11T08:06:38.374Z,35.30
2022-12-11T08:09:05.462Z,35.06
2022-12-11T08:11:32.530Z,35.20
2022-12-11T08:13:59.735Z,35.28
2022-12-11T08:16:26.831Z,35.19
2022-12-11T08:18:53.925Z,35.44
2022-12-11T08:21:20.972Z,35.30
2022-12-11T08:23:48.034Z,35.06
2022-12-11T08:26:15.091Z,34.92
2022-12-11T08:28:42.156Z,35.07
2022-12-11T08:31:09.377Z,35.12
2022-12-11T08:33:36.546Z,35.00
2022-12-11T08:36:03.782Z,35.12
2022-12-11T08:38:31.387Z,35.05
2022-12-11T08:40:58.451Z,35.06
2022-12-11T08:43:25.523Z,35.01
2022-12-11T08:45:52.674Z,35.16
2022-12-11T08:48:19.787Z,34.88
2022-12-11T08:50:46.863Z,34.81
2022-12-11T08:53:13.919Z,34.77
2022-12-11T08:55:41.841Z,34.82
2022-12-11T08:58:08.959Z,34.90
2022-12-11T09:00:36.210Z,34.94
2022-12-11T09:03:05.349Z,34.80
2022-12-11T09:05:35.506Z,34.84
2022-12-11T09:08:02.615Z,34.83
2022-12-11T09:10:29.701Z,34.83
2022-12-11T09:12:56.769Z,34.78
2022-12-11T09:15:23.835Z,34.95
2022-12-11T09:17:50.891Z,34.70
2022-12-11T09:20:18.003Z,34.78
2022-12-11T09:22:45.063Z,34.78
2022-12-11T09:25:12.364Z,34.75
2022-12-11T09:27:39.656Z,34.67
2022-12-11T09:30:06.727Z,34.77
2022-12-11T09:32:33.813Z,34.75
2022-12-11T09:35:00.878Z,34.65
2022-12-11T09:37:27.943Z,34.60
2022-12-11T09:39:55.038Z,34.79
2022-12-11T09:42:22.160Z,34.58
2022-12-11T09:44:49.223Z,34.57
2022-12-11T09:47:16.294Z,34.67
2022-12-11T09:49:43.374Z,34.55
2022-12-11T09:52:10.435Z,34.51
2022-12-11T09:54:37.506Z,34.71
2022-12-11T09:57:04.575Z,34.53
2022-12-11T09:59:31.661Z,34.56
2022-12-11T10:01:58.733Z,34.47
2022-12-11T10:04:25.890Z,34.51
2022-12-11T10:06:52.943Z,34.71
2022-12-11T10:09:20.028Z,34.46
2022-12-11T10:11:52.915Z,34.52
2022-12-11T10:14:23.168Z,34.50
2022-12-11T10:16:50.277Z,34.34
2022-12-11T10:19:17.331Z,34.51
2022-12-11T10:21:44.467Z,34.27
2022-12-11T10:24:11.552Z,34.29
2022-12-11T10:26:39.593Z,34.20
2022-12-11T10:29:06.676Z,34.55
2022-12-11T10:31:33.810Z,34.48
2022-12-11T10:34:00.901Z,34.41
2022-12-11T10:36:27.985Z,34.34
2022-12-11T10:38:55.047Z,34.42
2022-12-11T10:41:24.445Z,34.39
2022-12-11T10:43:51.521Z,34.33
2022-12-11T10:46:18.718Z,34.33
2022-12-11T10:48:45.966Z,34.42
2022-12-11T10:51:13.057Z,34.39
2022-12-11T10:53:40.520Z,34.42
2022-12-11T10:56:07.573Z,34.19
2022-12-11T10:58:34.756Z,34.37
2022-12-11T11:01:01.814Z,34.25
2022-12-11T11:03:29.296Z,34.38
2022-12-11T11:05:56.457Z,34.31
2022-12-11T11:08:23.821Z,34.21
2022-12-11T11:10:51.091Z,34.04
2022-12-11T11:13:18.181Z,34.20
2022-12-11T11:15:45.293Z,34.14
2022-12-11T11:18:12.422Z,34.13
2022-12-11T11:20:39.918Z,34.23
2022-12-11T11:23:06.977Z,34.20
2022-12-11T11:25:34.026Z,34.21
2022-12-11T11:28:01.131Z,34.35
2022-12-11T11:30:28.245Z,34.32
2022-12-11T11:32:55.392Z,34.06
2022-12-11T11:35:22.489Z,34.11
2022-12-11T11:37:49.575Z,34.02
2022-12-11T11:40:16.621Z,34.03
2022-12-11T11:42:44.243Z,34.19
2022-12-11T11:45:11.577Z,33.91
2022-12-11T11:47:38.774Z,34.10
2022-12-11T11:50:05.868Z,34.24
2022-12-11T11:52:33.084Z,34.17
2022-12-11T11:55:00.846Z,34.09
2022-12-11T11:57:27.945Z,34.00
2022-12-11T11:59:55.033Z,34.10
2022-12-11T12:02:22.151Z,34.07
2022-12-11T12:04:53.197Z,34.19
2022-12-11T12:07:20.267Z,34.16
2022-12-11T12:09:48.303Z,34.02
2022-12-11T12:12:19.399Z,34.13
2022-12-11T12:14:52.320Z,34.14
2022-12-11T12:17:20.305Z,33.86
2022-12-11T12:19:47.415Z,34.02
2022-12-11T12:22:14.487Z,33.95
2022-12-11T12:24:41.578Z,33.92
2022-12-11T12:27:29.166Z,34.08
2022-12-11T12:29:55.773Z,33.97
2022-12-11T12:32:23.463Z,34.01
2022-12-11T12:34:50.640Z,33.87
2022-12-11T12:37:17.737Z,34.10
2022-12-11T12:39:44.790Z,33.89
2022-12-11T12:42:11.891Z,34.02
2022-12-11T12:44:38.958Z,33.81
2022-12-11T12:47:06.019Z,33.92
2022-12-11T12:49:33.220Z,34.05
2022-12-11T12:52:00.305Z,33.97
2022-12-11T12:54:27.350Z,34.12
2022-12-11T12:56:54.409Z,34.12
2022-12-11T12:59:21.852Z,33.78
2022-12-11T13:01:49.645Z,33.69
2022-12-11T13:04:39.411Z,33.74
2022-12-11T13:07:03.827Z,33.91
2022-12-11T13:09:30.910Z,33.82
2022-12-11T13:11:58.054Z,33.99
2022-12-11T13:14:28.041Z,33.99
2022-12-11T13:16:55.106Z,33.85
2022-12-11T13:19:22.298Z,33.96
2022-12-11T13:21:49.429Z,33.86
2022-12-11T13:24:16.509Z,33.89
2022-12-11T13:26:43.611Z,33.63
2022-12-11T13:29:10.699Z,33.91
2022-12-11T13:31:37.882Z,33.70
2022-12-11T13:34:04.957Z,33.64
2022-12-11T13:36:32.031Z,33.61
2022-12-11T13:38:59.147Z,33.57
2022-12-11T13:41:26.298Z,33.81
2022-12-11T13:43:53.815Z,33.79
2022-12-11T13:46:20.923Z,33.78
2022-12-11T13:48:47.993Z,33.63
2022-12-11T13:51:15.094Z,33.76
2022-12-11T13:53:42.155Z,33.77
2022-12-11T13:56:09.252Z,33.53
2022-12-11T13:58:36.391Z,33.58
2022-12-11T14:01:03.512Z,33.64
2022-12-11T14:03:30.653Z,33.62
2022-12-11T14:05:57.705Z,33.45
2022-12-11T14:08:24.812Z,33.85
2022-12-11T14:10:51.892Z,33.49
2022-12-11T14:13:18.967Z,33.64
2022-12-11T14:15:46.029Z,33.82
2022-12-11T14:18:13.135Z,33.77
2022-12-11T14:20:40.221Z,33.75
2022-12-11T14:23:07.693Z,33.67
2022-12-11T14:25:34.767Z,33.56
2022-12-11T14:28:01.870Z,33.53
2022-12-11T14:30:28.993Z,33.54
2022-12-11T14:32:56.097Z,33.39
2022-12-11T14:35:23.145Z,33.48
2022-12-11T14:37:50.196Z,33.73
2022-12-11T14:40:17.320Z,33.40
2022-12-11T14:42:44.390Z,33.66
2022-12-11T14:45:11.726Z,33.45
2022-12-11T14:47:38.855Z,33.51
2022-12-11T14:50:06.062Z,33.36
2022-12-11T14:52:33.246Z,33.62
2022-12-11T14:55:00.370Z,33.64
2022-12-11T14:57:27.430Z,33.52
2022-12-11T14:59:54.506Z,33.33
2022-12-11T15:02:21.738Z,33.37
2022-12-11T15:04:48.867Z,33.42
2022-12-11T15:07:15.932Z,33.52
2022-12-11T15:09:43.229Z,33.42
2022-12-11T15:12:10.326Z,33.47
2022-12-11T15:14:37.383Z,33.86
2022-12-11T15:17:04.608Z,34.26
2022-12-11T15:19:31.809Z,34.07
2022-12-11T15:21:58.895Z,33.74
2022-12-11T15:24:26.121Z,34.00
2022-12-11T15:26:55.584Z,33.51
2022-12-11T15:29:22.659Z,33.70
2022-12-11T15:31:49.709Z,33.93
2022-12-11T15:34:16.770Z,33.76
2022-12-11T15:36:43.826Z,33.46
2022-12-11T15:39:10.892Z,34.20
2022-12-11T15:41:37.995Z,33.88
2022-12-11T15:44:05.111Z,33.74
2022-12-11T15:46:32.240Z,33.72
2022-12-11T15:48:59.377Z,33.60
2022-12-11T15:51:27.539Z,33.62
2022-12-11T15:53:54.688Z,33.37
2022-12-11T15:56:21.862Z,33.30
2022-12-11T15:58:48.973Z,33.33
2022-12-11T16:01:16.125Z,33.17
2022-12-11T16:03:43.234Z,33.64
2022-12-11T16:06:10.326Z,34.01
2022-12-11T16:08:37.390Z,34.00
2022-12-11T16:11:04.532Z,33.78
2022-12-11T16:13:31.667Z,33.58
2022-12-11T16:15:58.817Z,33.97
2022-12-11T16:18:26.559Z,33.33
2022-12-11T16:20:53.633Z,33.24
2022-12-11T16:23:20.797Z,33.24
2022-12-11T16:25:51.027Z,33.53
2022-12-11T16:28:18.261Z,33.62
2022-12-11T16:30:45.435Z,33.77
2022-12-11T16:33:13.540Z,33.69
2022-12-11T16:35:41.344Z,33.34
2022-12-11T16:38:09.933Z,33.41
2022-12-11T16:40:37.368Z,33.27
2022-12-11T16:43:05.026Z,33.47
2022-12-11T16:45:32.421Z,33.47
2022-12-11T16:47:59.518Z,33.68
2022-12-11T16:50:26.646Z,33.43
2022-12-11T16:52:53.706Z,33.58
2022-12-11T16:55:22.262Z,33.06
2022-12-11T16:57:49.441Z,33.31
2022-12-11T17:00:16.655Z,33.20
2022-12-11T17:02:43.789Z,33.35
2022-12-11T17:05:11.229Z,33.85
2022-12-11T17:07:38.500Z,33.70
2022-12-11T17:10:05.629Z,33.48
2022-12-11T17:12:32.736Z,33.63
2022-12-11T17:14:59.956Z,33.90
2022-12-11T17:17:27.105Z,33.51
2022-12-11T17:19:54.277Z,33.79
2022-12-11T17:22:21.383Z,33.54
2022-12-11T17:24:48.447Z,33.47
2022-12-11T17:27:15.566Z,33.30
2022-12-11T17:29:42.642Z,33.32
2022-12-11T17:32:09.709Z,33.37
2022-12-11T17:34:38.565Z,33.40
2022-12-11T17:37:05.815Z,33.54
2022-12-11T17:39:32.860Z,33.26
2022-12-11T17:41:59.927Z,33.14
2022-12-11T17:44:30.308Z,33.17
2022-12-11T17:46:57.451Z,33.40
2022-12-11T17:49:24.509Z,33.43
2022-12-11T17:51:53.171Z,33.39
2022-12-11T17:54:20.283Z,33.46
2022-12-11T17:56:47.401Z,33.31
2022-12-11T17:59:14.477Z,33.36
2022-12-11T18:01:41.595Z,33.36
2022-12-11T18:04:08.855Z,33.31
2022-12-11T18:06:36.004Z,33.42
2022-12-11T18:09:03.105Z,33.33
2022-12-11T18:11:30.791Z,33.43
2022-12-11T18:13:57.936Z,33.40
2022-12-11T18:16:25.046Z,33.47
2022-12-11T18:18:52.323Z,33.26
2022-12-11T18:21:19.531Z,33.43
2022-12-11T18:23:46.665Z,33.36
2022-12-11T18:26:14.629Z,33.51
2022-12-11T18:28:45.058Z,33.57
2022-12-11T18:31:13.577Z,33.60
2022-12-11T18:33:40.722Z,33.42
2022-12-11T18:36:07.803Z,33.58
2022-12-11T18:38:34.890Z,33.46
2022-12-11T18:41:02.034Z,33.45
2022-12-11T18:43:29.108Z,33.48
2022-12-11T18:45:56.571Z,34.13
2022-12-11T18:48:23.630Z,33.78
2022-12-11T18:50:50.733Z,33.52
2022-12-11T18:53:17.909Z,33.51
2022-12-11T18:55:45.045Z,33.53
2022-12-11T18:58:12.093Z,33.66
2022-12-11T19:00:39.333Z,33.70
2022-12-11T19:03:06.569Z,33.69
2022-12-11T19:05:33.851Z,33.63
2022-12-11T19:08:00.968Z,33.81
2022-12-11T19:10:28.047Z,33.53
2022-12-11T19:12:55.092Z,33.58
2022-12-11T19:15:23.938Z,33.83
2022-12-11T19:17:51.339Z,33.77
2022-12-11T19:20:47.573Z,33.84
2022-12-11T19:23:05.657Z,33.74
2022-12-11T19:25:32.708Z,33.77
2022-12-11T19:27:59.900Z,33.70
2022-12-11T19:30:27.047Z,33.73
2022-12-11T19:32:54.131Z,33.65
2022-12-11T19:35:21.179Z,33.63
2022-12-11T19:37:48.246Z,33.71
2022-12-11T19:40:15.299Z,33.55
2022-12-11T19:42:42.458Z,33.53
2022-12-11T19:45:10.714Z,33.76
2022-12-11T19:47:38.012Z,33.49
2022-12-11T19:50:05.064Z,33.65
2022-12-11T19:52:32.157Z,33.69
2022-12-11T19:54:59.221Z,33.66
2022-12-11T19:57:26.306Z,33.55
2022-12-11T19:59:57.229Z,33.67
2022-12-11T20:02:24.622Z,33.54
2022-12-11T20:04:51.724Z,33.86
2022-12-11T20:07:19.010Z,33.78
2022-12-11T20:09:46.155Z,33.79
2022-12-11T20:12:13.233Z,33.61
2022-12-11T20:14:40.411Z,33.88
2022-12-11T20:17:12.324Z,33.58
2022-12-11T20:19:40.498Z,33.60
2022-12-11T20:22:07.670Z,33.73
2022-12-11T20:24:34.769Z,33.70
2022-12-11T20:27:01.908Z,33.70
2022-12-11T20:29:29.013Z,33.82
2022-12-11T20:31:56.105Z,33.85
2022-12-11T20:34:23.285Z,33.70
2022-12-11T20:36:50.338Z,33.67
2022-12-11T20:39:17.586Z,33.72
2022-12-11T20:41:44.732Z,33.76
2022-12-11T20:44:11.793Z,33.76
2022-12-11T20:46:38.868Z,33.83
2022-12-11T20:49:09.879Z,33.93
2022-12-11T20:51:36.939Z,33.85
2022-12-11T20:54:04.012Z,33.82
2022-12-11T20:56:31.093Z,33.88
2022-12-11T20:58:58.164Z,33.84
2022-12-11T21:01:25.342Z,33.84
2022-12-11T21:03:53.508Z,33.66
2022-12-11T21:06:20.581Z,33.62
2022-12-11T21:08:47.634Z,33.79
2022-12-11T21:11:14.692Z,33.76
2022-12-11T21:13:41.856Z,33.88
2022-12-11T21:16:09.007Z,33.88
2022-12-11T21:18:36.488Z,33.82
2022-12-11T21:21:03.602Z,33.79
2022-12-11T21:23:30.706Z,33.83
2022-12-11T21:25:57.797Z,33.81
2022-12-11T21:28:24.849Z,33.92
2022-12-11T21:30:51.981Z,33.68
2022-12-11T21:33:19.042Z,33.79
2022-12-11T21:35:46.138Z,33.96
2022-12-11T21:38:13.678Z,34.12
2022-12-11T21:40:41.198Z,34.08
2022-12-11T21:43:08.260Z,33.88
2022-12-11T21:46:00.601Z,34.01
2022-12-11T21:48:22.397Z,34.12
2022-12-11T21:50:49.479Z,33.98
2022-12-11T21:53:16.542Z,33.94
2022-12-11T21:55:43.598Z,34.07
2022-12-11T21:58:10.658Z,33.77
2022-12-11T22:00:37.790Z,33.93
2022-12-11T22:03:04.862Z,33.90
2022-12-11T22:05:31.944Z,33.86
2022-12-11T22:07:59.101Z,33.95
2022-12-11T22:10:26.247Z,34.03
2022-12-11T22:12:53.432Z,34.02
2022-12-11T22:15:20.494Z,33.93
2022-12-11T22:17:47.569Z,34.04
2022-12-11T22:20:14.685Z,34.22
2022-12-11T22:22:41.886Z,33.86
2022-12-11T22:25:12.164Z,33.95
2022-12-11T22:27:39.961Z,34.27
2022-12-11T22:30:07.105Z,34.24
2022-12-11T22:32:34.177Z,34.03
2022-12-11T22:35:01.244Z,34.16
2022-12-11T22:37:29.075Z,34.10
2022-12-11T22:39:56.154Z,34.11
2022-12-11T22:42:23.246Z,33.96
2022-12-11T22:44:50.379Z,34.28
2022-12-11T22:47:17.449Z,34.29
2022-12-11T22:49:44.511Z,34.41
2022-12-11T22:52:11.645Z,34.14
2022-12-11T22:54:38.734Z,34.09
2022-12-11T22:57:05.816Z,34.18
2022-12-11T22:59:32.934Z,34.21
2022-12-11T23:02:00.080Z,34.45
2022-12-11T23:04:27.184Z,34.48
2022-12-11T23:06:54.286Z,34.42
2022-12-11T23:09:21.349Z,34.17
2022-12-11T23:11:48.413Z,34.19
2022-12-11T23:14:15.477Z,34.10
2022-12-11T23:16:42.610Z,34.13
2022-12-11T23:19:09.752Z,34.25
2022-12-11T23:21:36.807Z,34.42
2022-12-11T23:24:03.982Z,34.27
2022-12-11T23:26:31.142Z,34.22
2022-12-11T23:28:58.224Z,34.10
2022-12-11T23:31:25.537Z,34.26
2022-12-11T23:33:52.665Z,34.19
2022-12-11T23:36:19.728Z,34.12
2022-12-11T23:38:52.618Z,34.40
2022-12-11T23:41:21.511Z,34.21
2022-12-11T23:43:48.564Z,34.06
2022-12-11T23:46:15.754Z,34.31
2022-12-11T23:48:42.865Z,34.23
2022-12-11T23:51:09.954Z,34.32
2022-12-11T23:53:37.038Z,34.26
2022-12-11T23:56:04.103Z,34.18
2022-12-11T23:58:31.185Z,34.10
